Time;durP1;ratioP1;P1;durP2;ratioP2;P2;SDS_P1;SDS_P2;PMS_P1;PMS_P2;Temp;Humidity;BMP_temperature;BMP_pressure;BME280_temperature;BME280_humidity;BME280_pressure;Samples;Min_cycle;Max_cycle;Signal;HPM_P1;HPM_P2
2020/12/17 00:00:57;;;;;;;2.67;1.60;;;;;;;8.10;64.67;100976.31;8003256;28;20449;-64
2020/12/17 00:04:47;;;;;;;1.77;1.50;;;;;;;8.12;64.40;100978.84;8004427;28;20112;-63
2020/12/17 00:08:38;;;;;;;3.08;1.75;;;;;;;8.13;64.45;100981.34;8003742;28;20040;-63
2020/12/17 00:12:35;;;;;;;1.80;1.67;;;;;;;8.17;64.24;100982.06;8003989;28;20040;-64
2020/12/17 00:16:26;;;;;;;2.60;1.53;;;;;;;8.17;64.61;100972.41;8004653;28;20041;-63
2020/12/17 00:20:19;;;;;;;2.40;1.70;;;;;;;8.19;64.59;100970.56;8018093;28;20043;-63
2020/12/17 00:24:10;;;;;;;7.10;1.63;;;;;;;8.20;64.86;100974.88;8035768;28;20409;-63
2020/12/17 00:28:01;;;;;;;4.10;1.73;;;;;;;8.21;64.62;100976.56;8036878;28;20641;-64
2020/12/17 00:31:52;;;;;;;3.40;1.75;;;;;;;8.25;64.49;100980.69;8018203;28;20057;-63
2020/12/17 00:35:44;;;;;;;2.03;1.63;;;;;;;8.27;64.73;100975.38;8019177;28;20036;-63
2020/12/17 00:39:34;;;;;;;3.78;1.58;;;;;;;8.28;64.33;100977.94;8035327;28;20146;-63
2020/12/17 00:43:25;;;;;;;2.38;1.70;;;;;;;8.27;64.46;100965.75;8020406;28;20041;-63
2020/12/17 00:47:16;;;;;;;3.03;1.88;;;;;;;8.27;63.92;100968.38;8040973;28;20032;-63
2020/12/17 00:51:06;;;;;;;4.50;1.90;;;;;;;8.28;64.25;100975.31;8025009;28;20626;-63
2020/12/17 00:54:57;;;;;;;2.80;1.67;;;;;;;8.30;64.28;100976.06;8042732;28;20028;-64
2020/12/17 00:58:47;;;;;;;3.67;2.20;;;;;;;8.32;64.34;100974.22;8009600;28;20039;-65
2020/12/17 01:02:38;;;;;;;2.67;1.67;;;;;;;8.35;63.94;100981.03;8041632;28;20033;-63
2020/12/17 01:06:29;;;;;;;3.47;1.88;;;;;;;8.37;64.14;100981.81;8010325;28;20041;-63
2020/12/17 01:10:19;;;;;;;2.10;1.45;;;;;;;8.39;64.50;100990.41;8025676;28;20037;-63
2020/12/17 01:14:10;;;;;;;2.13;1.88;;;;;;;8.40;64.02;100977.25;8026027;28;20063;-63
2020/12/17 01:18:00;;;;;;;2.50;1.73;;;;;;;8.43;64.14;100978.00;8024545;28;20044;-64
2020/12/17 01:21:51;;;;;;;3.40;1.90;;;;;;;8.45;64.20;100987.47;8037476;28;20032;-64
2020/12/17 01:25:42;;;;;;;4.70;1.85;;;;;;;8.47;64.29;100995.22;8040797;28;20094;-65
2020/12/17 01:29:32;;;;;;;3.47;1.80;;;;;;;8.50;64.75;100989.84;8039852;28;20044;-64
2020/12/17 01:33:23;;;;;;;7.55;2.20;;;;;;;8.52;64.16;100985.34;8039291;28;20493;-64
2020/12/17 01:37:14;;;;;;;3.40;1.48;;;;;;;8.51;63.97;100978.41;8022935;28;20040;-64
2020/12/17 01:41:05;;;;;;;2.70;2.10;;;;;;;8.52;64.06;100980.97;8039911;28;20041;-64
2020/12/17 01:44:56;;;;;;;5.18;2.17;;;;;;;8.52;64.09;100990.59;8039811;28;20404;-63
2020/12/17 01:48:46;;;;;;;3.33;1.95;;;;;;;8.52;63.89;100999.28;8038529;28;20528;-63
2020/12/17 01:52:37;;;;;;;4.03;2.05;;;;;;;8.53;64.36;100998.38;8022785;28;20454;-63
2020/12/17 01:56:28;;;;;;;2.78;2.00;;;;;;;8.55;63.86;100999.09;8039600;28;20446;-63
2020/12/17 02:00:21;;;;;;;2.55;2.13;;;;;;;8.57;63.87;100996.41;8009865;28;20029;-64
2020/12/17 02:04:12;;;;;;;2.65;2.05;;;;;;;8.57;64.12;100992.03;8007297;28;20596;-63
2020/12/17 02:08:03;;;;;;;3.08;2.03;;;;;;;8.59;63.99;100989.31;8006492;28;20037;-63
2020/12/17 02:11:55;;;;;;;3.83;2.42;;;;;;;8.58;64.04;100983.22;8007337;28;20037;-63
2020/12/17 02:15:45;;;;;;;4.30;2.20;;;;;;;8.57;63.50;100981.56;8006843;28;20833;-63
2020/12/17 02:19:36;;;;;;;3.65;2.30;;;;;;;8.54;64.12;100986.94;8016474;28;20493;-63
2020/12/17 02:23:26;;;;;;;6.25;2.47;;;;;;;8.55;63.83;100986.00;8038647;28;20044;-63
2020/12/17 02:27:17;;;;;;;4.82;2.92;;;;;;;8.53;63.69;100987.88;8038228;28;20039;-63
2020/12/17 02:31:08;;;;;;;5.53;3.50;;;;;;;8.50;63.75;100974.94;8037406;28;20497;-63
2020/12/17 02:34:59;;;;;;;4.63;2.58;;;;;;;8.48;63.89;100983.81;8039734;28;20040;-63
2020/12/17 02:38:49;;;;;;;3.47;2.40;;;;;;;8.45;63.48;100976.16;8038115;28;20113;-63
2020/12/17 02:42:40;;;;;;;5.07;2.88;;;;;;;8.43;63.76;100976.22;8038194;28;20041;-63
2020/12/17 02:46:30;;;;;;;3.70;2.60;;;;;;;8.42;63.84;100978.94;8037236;28;20050;-63
2020/12/17 02:50:21;;;;;;;5.15;2.80;;;;;;;8.34;63.73;100968.88;8039003;28;20041;-63
2020/12/17 02:54:12;;;;;;;5.47;3.17;;;;;;;8.35;63.56;100973.19;8037747;28;20043;-64
2020/12/17 02:58:03;;;;;;;4.82;3.05;;;;;;;8.35;63.56;100973.19;8029226;28;20048;-63
2020/12/17 03:01:54;;;;;;;4.60;3.10;;;;;;;8.34;63.92;100976.72;7988678;28;20417;-63
2020/12/17 03:05:44;;;;;;;3.50;3.00;;;;;;;8.31;63.90;100962.06;8007148;28;20497;-63
2020/12/17 03:09:35;;;;;;;4.07;2.90;;;;;;;8.30;63.82;100967.34;8005866;28;20421;-63
2020/12/17 03:13:26;;;;;;;5.50;3.38;;;;;;;8.28;63.76;100964.84;8005294;28;20039;-64
2020/12/17 03:17:16;;;;;;;5.00;2.83;;;;;;;8.29;63.59;100960.47;8005639;28;20040;-63
2020/12/17 03:21:07;;;;;;;6.50;3.53;;;;;;;8.28;63.52;100959.59;8026371;28;20123;-63
2020/12/17 03:24:58;;;;;;;6.90;3.55;;;;;;;8.27;63.50;100970.16;8037923;28;20500;-63
2020/12/17 03:28:48;;;;;;;7.20;3.55;;;;;;;8.26;63.52;100969.31;8036075;28;20028;-64
2020/12/17 03:32:39;;;;;;;6.60;4.25;;;;;;;8.26;63.70;100985.00;8019003;28;20045;-64
2020/12/17 03:36:29;;;;;;;8.05;3.50;;;;;;;8.26;63.70;100963.22;8036025;28;20645;-63
2020/12/17 03:40:21;;;;;;;7.20;3.30;;;;;;;8.24;63.90;100963.31;8035911;28;20025;-63
2020/12/17 03:44:12;;;;;;;6.22;3.10;;;;;;;8.24;63.85;100958.09;8035686;28;20040;-63
2020/12/17 03:48:02;;;;;;;6.32;2.92;;;;;;;8.23;63.75;100964.25;8017485;28;20070;-64
2020/12/17 03:51:53;;;;;;;4.68;2.78;;;;;;;8.25;63.82;100954.53;8035488;28;20032;-64
2020/12/17 03:55:45;;;;;;;4.85;2.90;;;;;;;8.24;63.50;100954.63;8037226;28;20039;-64
2020/12/17 03:59:35;;;;;;;6.03;3.60;;;;;;;8.22;63.73;100954.69;7996354;28;20035;-64
2020/12/17 04:03:26;;;;;;;5.93;3.58;;;;;;;8.20;63.33;100946.09;8003498;28;20045;-64
2020/12/17 04:07:17;;;;;;;7.00;3.65;;;;;;;8.21;63.92;100946.94;7987387;28;20044;-64
2020/12/17 04:11:07;;;;;;;4.90;3.05;;;;;;;8.19;63.55;100949.63;7987206;28;20456;-63
2020/12/17 04:14:58;;;;;;;6.28;3.58;;;;;;;8.17;63.76;100946.25;8005013;28;20043;-64
2020/12/17 04:19:07;;;;;;;4.40;2.80;;;;;;;8.20;63.54;100953.09;8007111;28;20032;-63
2020/12/17 04:22:57;;;;;;;4.40;2.90;;;;;;;8.20;63.92;100956.56;8035739;28;20628;-63
2020/12/17 04:26:52;;;;;;;5.10;2.97;;;;;;;8.22;63.90;100970.41;8036782;28;20032;-63
2020/12/17 04:30:43;;;;;;;6.28;2.80;;;;;;;8.23;63.67;100964.25;8034354;28;20052;-63
2020/12/17 04:34:33;;;;;;;5.45;3.00;;;;;;;8.22;63.82;100974.78;8035059;28;20025;-63
2020/12/17 04:38:24;;;;;;;4.95;3.15;;;;;;;8.25;63.61;100972.03;8034738;28;20043;-63
2020/12/17 04:42:15;;;;;;;3.65;2.80;;;;;;;8.27;63.89;100980.63;8035216;28;20397;-63
2020/12/17 04:46:07;;;;;;;6.03;2.70;;;;;;;8.29;63.56;100968.31;8018026;28;20497;-63
2020/12/17 04:50:08;;;;;;;5.03;2.63;;;;;;;8.31;63.44;100972.53;8034467;28;20493;-63
2020/12/17 04:54:02;;;;;;;4.45;2.30;;;;;;;8.32;63.83;100974.22;8035413;28;20059;-63
2020/12/17 04:57:57;;;;;;;7.80;2.30;;;;;;;8.35;63.57;100987.13;8009585;28;20068;-63
2020/12/17 05:01:49;;;;;;;3.70;2.08;;;;;;;8.36;63.76;100980.13;7985851;28;20102;-64
2020/12/17 05:05:40;;;;;;;3.25;2.30;;;;;;;8.38;63.98;100988.72;8002280;28;20032;-63
2020/12/17 05:09:31;;;;;;;2.47;1.88;;;;;;;8.40;63.71;100994.72;8002283;28;20033;-64
2020/12/17 05:13:23;;;;;;;3.65;1.80;;;;;;;8.42;63.36;100984.19;8002776;28;20041;-64
2020/12/17 05:17:14;;;;;;;5.70;1.98;;;;;;;8.43;63.45;100996.31;8002029;28;20058;-63
2020/12/17 05:21:05;;;;;;;6.32;1.90;;;;;;;8.44;63.76;100998.88;8025113;28;20028;-63
2020/12/17 05:24:57;;;;;;;6.57;2.00;;;;;;;8.45;63.54;101003.19;8017567;28;20048;-63
2020/12/17 05:28:49;;;;;;;2.65;1.60;;;;;;;8.47;63.58;101005.69;8036020;28;20036;-63
2020/12/17 05:32:43;;;;;;;3.40;2.10;;;;;;;8.49;63.40;101024.81;8039312;28;20505;-63
2020/12/17 05:36:34;;;;;;;3.25;1.90;;;;;;;8.51;63.37;101033.41;8039848;28;20501;-63
2020/12/17 05:40:24;;;;;;;4.45;1.92;;;;;;;8.53;63.53;101039.41;8023065;28;20075;-63
2020/12/17 05:44:17;;;;;;;9.98;2.17;;;;;;;8.55;63.81;101038.38;8041684;28;20039;-63
2020/12/17 05:48:20;;;;;;;5.07;1.92;;;;;;;8.57;63.55;101043.56;8040170;28;20044;-63
2020/12/17 05:52:21;;;;;;;3.33;1.70;;;;;;;8.57;63.46;101041.78;8039062;28;20036;-63
2020/12/17 05:56:13;;;;;;;6.88;1.88;;;;;;;8.60;64.02;101048.59;8022551;28;20752;-64
2020/12/17 06:00:05;;;;;;;5.28;2.60;;;;;;;8.60;63.89;101059.94;8013643;28;20032;-63
2020/12/17 06:03:56;;;;;;;3.42;1.83;;;;;;;8.63;63.39;101075.47;8006975;28;20071;-63
2020/12/17 06:07:50;;;;;;;5.10;1.73;;;;;;;8.63;63.52;101078.09;8006622;28;20049;-63
2020/12/17 06:11:41;;;;;;;5.82;1.83;;;;;;;8.67;63.98;101086.63;8007548;28;20055;-65
2020/12/17 06:15:32;;;;;;;6.18;2.13;;;;;;;8.67;63.86;101097.09;8008300;28;20037;-65
2020/12/17 06:19:23;;;;;;;4.43;1.90;;;;;;;8.68;63.90;101104.88;8013508;28;20032;-65
2020/12/17 06:23:14;;;;;;;6.15;1.88;;;;;;;8.67;63.68;101118.03;8038932;28;20543;-65
2020/12/17 06:27:08;;;;;;;4.25;1.77;;;;;;;8.65;63.80;101118.16;8039593;28;20036;-65
2020/12/17 06:31:03;;;;;;;5.15;2.00;;;;;;;8.63;63.76;101114.75;8039000;28;20040;-65
2020/12/17 06:34:54;;;;;;;10.07;1.83;;;;;;;8.64;63.74;101123.47;8038829;28;20040;-65
2020/12/17 06:38:46;;;;;;;1.98;1.48;;;;;;;8.63;63.96;101132.22;8038178;28;20469;-65
2020/12/17 06:42:40;;;;;;;2.42;1.63;;;;;;;8.61;64.16;101134.97;8037263;28;20032;-65
2020/12/17 06:46:39;;;;;;;1.95;1.27;;;;;;;8.60;64.10;101141.13;8020982;28;20094;-65
2020/12/17 06:50:30;;;;;;;3.25;1.73;;;;;;;8.57;64.35;101145.66;8037692;28;20163;-65
2020/12/17 06:54:20;;;;;;;2.03;1.02;;;;;;;8.57;64.17;101156.16;8020615;28;20098;-65
2020/12/17 06:58:19;;;;;;;1.83;1.10;;;;;;;8.56;64.35;101168.38;8027336;28;20056;-65
2020/12/17 07:02:09;;;;;;;;;;;;;;;8.48;64.42;101169.72;8007168;28;20041;-65
2020/12/17 07:06:17;;;;;;;1.33;1.08;;;;;;;8.52;64.02;101176.47;8005354;28;20289;-65
2020/12/17 07:10:23;;;;;;;4.13;1.17;;;;;;;8.51;64.17;101180.88;8003232;28;20378;-65
2020/12/17 07:14:26;;;;;;;1.98;1.20;;;;;;;8.51;64.42;101185.25;8006236;28;20432;-65
2020/12/17 07:18:23;;;;;;;1.33;1.00;;;;;;;8.51;64.40;101204.44;8005720;28;20090;-65
2020/12/17 07:22:15;;;;;;;4.03;1.55;;;;;;;8.50;64.44;101210.59;8019326;28;20060;-65
2020/12/17 07:26:13;;;;;;;1.17;1.08;;;;;;;8.50;64.42;101213.22;8036838;28;20048;-65
2020/12/17 07:30:06;;;;;;;1.48;1.20;;;;;;;8.49;64.41;101215.94;8036690;28;20109;-65
2020/12/17 07:33:57;;;;;;;3.15;1.10;;;;;;;8.47;64.39;101223.00;8036005;28;20519;-65
2020/12/17 07:38:00;;;;;;;1.10;0.93;;;;;;;8.48;64.12;101235.19;8035953;28;20512;-65
2020/12/17 07:42:02;;;;;;;3.47;1.92;;;;;;;8.47;63.98;101241.31;8036311;28;20028;-65
2020/12/17 07:45:54;;;;;;;3.83;1.70;;;;;;;8.47;64.14;101236.94;8035773;28;20793;-65
2020/12/17 07:49:45;;;;;;;3.13;1.55;;;;;;;8.47;64.10;101252.66;8035742;28;20047;-64
2020/12/17 07:53:36;;;;;;;3.45;1.13;;;;;;;8.48;64.01;101264.81;8034805;28;20032;-65
2020/12/17 07:57:27;;;;;;;2.58;1.70;;;;;;;8.49;64.12;101270.91;8030146;28;20058;-65
2020/12/17 08:01:18;;;;;;;3.65;1.60;;;;;;;8.48;64.02;101266.59;8003257;28;20390;-65
2020/12/17 08:05:08;;;;;;;2.28;1.55;;;;;;;8.48;64.11;101274.44;8004057;28;20533;-65
2020/12/17 08:09:01;;;;;;;3.40;1.67;;;;;;;8.48;63.83;101274.44;8004952;28;20522;-65
2020/12/17 08:12:52;;;;;;;1.90;1.00;;;;;;;8.47;64.05;101286.69;8003513;28;20058;-65
2020/12/17 08:16:43;;;;;;;0.90;0.80;;;;;;;8.47;63.73;101296.31;8002957;28;20037;-65
2020/12/17 08:20:34;;;;;;;0.75;0.75;;;;;;;8.45;63.83;101288.56;8020373;28;20036;-65
2020/12/17 08:24:26;;;;;;;2.08;0.85;;;;;;;8.45;63.85;101304.25;8035352;28;20067;-65
2020/12/17 08:28:17;;;;;;;1.75;0.82;;;;;;;8.43;63.47;101308.72;8018645;28;20040;-65
2020/12/17 08:32:08;;;;;;;1.63;0.90;;;;;;;8.39;63.62;101315.88;8030597;28;20072;-66
2020/12/17 08:36:06;;;;;;;1.23;0.98;;;;;;;8.39;63.56;101323.72;8003366;28;20044;-65
2020/12/17 08:40:04;;;;;;;1.90;1.05;;;;;;;8.39;63.45;101338.59;8003306;28;20044;-65
2020/12/17 08:43:59;;;;;;;0.85;0.77;;;;;;;8.38;63.56;101340.34;7996541;28;20505;-66
2020/12/17 08:47:51;;;;;;;1.05;0.90;;;;;;;8.37;63.35;101346.53;8003384;28;20726;-66
2020/12/17 08:51:45;;;;;;;0.75;0.73;;;;;;;8.39;63.32;101362.16;8022277;28;20038;-65
2020/12/17 08:55:36;;;;;;;1.05;0.88;;;;;;;8.38;63.26;101358.69;7987616;28;20034;-65
2020/12/17 08:59:27;;;;;;;0.88;0.75;;;;;;;8.40;63.25;101363.84;7975700;28;20043;-65
2020/12/17 09:03:19;;;;;;;1.70;0.80;;;;;;;8.43;63.50;101365.47;7984646;28;20503;-65
2020/12/17 09:07:10;;;;;;;2.53;0.85;;;;;;;8.45;63.16;101361.00;7991408;28;20710;-65
2020/12/17 09:11:00;;;;;;;1.08;0.88;;;;;;;8.44;63.43;101369.78;8008501;28;20037;-65
2020/12/17 09:14:51;;;;;;;1.20;0.80;;;;;;;8.47;63.38;101374.84;8009999;28;20041;-65
2020/12/17 09:18:54;;;;;;;2.88;1.05;;;;;;;8.51;63.46;101389.50;7991554;28;20094;-65
2020/12/17 09:22:45;;;;;;;1.77;1.13;;;;;;;8.57;63.39;101384.81;8040185;28;20036;-65
2020/12/17 09:26:38;;;;;;;0.73;0.73;;;;;;;8.60;63.52;101395.13;8039763;28;20079;-65
2020/12/17 09:30:32;;;;;;;2.83;0.80;;;;;;;8.65;63.52;101408.00;8040193;28;20080;-65
2020/12/17 09:34:23;;;;;;;1.10;0.82;;;;;;;8.70;63.86;101414.72;8039332;28;20052;-65
2020/12/17 09:38:18;;;;;;;3.00;0.88;;;;;;;8.78;63.54;101419.56;8040866;28;20044;-65
2020/12/17 09:42:18;;;;;;;0.50;0.50;;;;;;;8.89;63.74;101425.13;8039492;28;20042;-65
2020/12/17 09:46:08;;;;;;;1.75;0.98;;;;;;;8.94;63.65;101430.97;8012604;28;20045;-65
2020/12/17 09:50:11;;;;;;;1.30;0.80;;;;;;;8.97;63.36;101428.19;8007147;28;20029;-65
2020/12/17 09:54:02;;;;;;;2.58;0.80;;;;;;;8.97;63.46;101441.31;7997234;28;20069;-65
2020/12/17 09:57:53;;;;;;;1.23;0.77;;;;;;;8.98;63.45;101443.00;7989263;28;20033;-65
2020/12/17 10:01:43;;;;;;;1.13;0.68;;;;;;;9.00;63.51;101461.25;7996314;28;20534;-65
2020/12/17 10:05:34;;;;;;;1.52;1.08;;;;;;;9.01;63.29;101457.72;7995738;28;20051;-65
2020/12/17 10:09:25;;;;;;;1.35;1.00;;;;;;;9.01;63.41;101460.34;7996624;28;20037;-65
2020/12/17 10:13:16;;;;;;;1.45;0.90;;;;;;;9.01;63.43;101468.19;7998109;28;20033;-66
2020/12/17 10:17:06;;;;;;;0.93;0.75;;;;;;;9.02;63.22;101468.13;7977994;28;20041;-66
2020/12/17 10:20:57;;;;;;;3.38;0.98;;;;;;;9.02;63.38;101472.53;7995566;28;20040;-65
2020/12/17 10:24:48;;;;;;;2.50;0.80;;;;;;;9.03;63.37;101472.47;7993720;28;20390;-65
2020/12/17 10:28:38;;;;;;;1.20;0.88;;;;;;;9.06;63.26;101477.53;7979101;28;20070;-66
2020/12/17 10:32:30;;;;;;;1.10;1.00;;;;;;;9.13;63.39;101475.44;7995980;28;20635;-65
2020/12/17 10:36:23;;;;;;;1.65;0.93;;;;;;;9.18;63.39;101476.91;7976117;28;20037;-65
2020/12/17 10:40:13;;;;;;;4.15;1.05;;;;;;;9.18;63.26;101473.44;7996819;28;20025;-65
2020/12/17 10:44:05;;;;;;;2.33;0.80;;;;;;;9.22;63.18;101480.22;7978385;28;20047;-64
2020/12/17 10:47:55;;;;;;;3.25;1.08;;;;;;;9.28;63.41;101472.91;7993915;28;20056;-64
2020/12/17 10:51:48;;;;;;;1.10;0.88;;;;;;;9.36;63.42;101476.94;7978834;28;20045;-65
2020/12/17 10:55:39;;;;;;;3.65;1.00;;;;;;;9.41;63.49;101477.56;7993088;28;20722;-65
2020/12/17 10:59:30;;;;;;;3.55;0.88;;;;;;;9.45;63.17;101487.81;7993454;28;20587;-65
2020/12/17 11:03:20;;;;;;;5.80;0.90;;;;;;;9.46;63.11;101481.63;7994024;28;20045;-65
2020/12/17 11:07:11;;;;;;;2.63;1.13;;;;;;;9.47;62.98;101485.09;7993249;28;20455;-66
2020/12/17 11:11:01;;;;;;;5.28;1.00;;;;;;;9.49;62.77;101483.25;7997618;28;20045;-64
2020/12/17 11:14:52;;;;;;;5.93;1.20;;;;;;;9.38;62.91;101467.22;7996711;28;20036;-65
2020/12/17 11:18:43;;;;;;;4.15;1.27;;;;;;;9.48;62.82;101485.03;7994720;28;20052;-65
2020/12/17 11:22:33;;;;;;;3.13;1.05;;;;;;;9.49;62.73;101489.34;7996269;28;20025;-65
2020/12/17 11:26:24;;;;;;;1.20;0.90;;;;;;;9.52;62.78;101490.97;7992063;28;20044;-65
2020/12/17 11:30:15;;;;;;;0.85;0.70;;;;;;;9.52;62.62;101486.56;7992373;28;20533;-65
2020/12/17 11:34:05;;;;;;;2.97;1.02;;;;;;;9.50;62.72;101487.56;7977043;28;20033;-64
2020/12/17 11:37:56;;;;;;;2.38;1.40;;;;;;;9.49;62.70;101491.97;7976942;28;20033;-64
2020/12/17 11:41:47;;;;;;;1.30;1.20;;;;;;;9.50;62.54;101498.91;7982220;28;20048;-64
2020/12/17 11:45:38;;;;;;;4.03;1.10;;;;;;;9.50;62.52;101498.91;7977971;28;20061;-65
2020/12/17 11:49:29;;;;;;;2.25;1.35;;;;;;;9.53;62.53;101495.28;7994885;28;20036;-62
2020/12/17 11:53:19;;;;;;;5.15;1.17;;;;;;;9.53;62.52;101496.13;7997146;28;20028;-64
2020/12/17 11:57:11;;;;;;;2.97;1.27;;;;;;;9.52;62.51;101493.59;7990623;28;20057;-62
2020/12/17 12:01:01;;;;;;;3.83;0.93;;;;;;;9.48;62.35;101506.00;7993064;28;20128;-64
2020/12/17 12:04:52;;;;;;;4.30;1.40;;;;;;;9.45;62.33;101486.97;7993887;28;20039;-64
2020/12/17 12:08:42;;;;;;;3.30;1.10;;;;;;;9.55;62.24;101498.66;7993099;28;20025;-64
2020/12/17 12:12:33;;;;;;;2.47;1.30;;;;;;;9.61;62.68;101495.72;7992541;28;20792;-65
2020/12/17 12:16:25;;;;;;;2.15;1.27;;;;;;;9.67;62.26;101500.66;7990373;28;20675;-65
2020/12/17 12:20:15;;;;;;;1.17;1.08;;;;;;;9.71;62.25;101505.66;7991379;28;20094;-65
2020/12/17 12:24:06;;;;;;;1.25;0.90;;;;;;;9.74;62.15;101500.22;7846956;28;82378;-66
2020/12/17 12:27:56;;;;;;;3.72;0.95;;;;;;;9.79;61.85;101507.88;7991140;28;20048;-65
2020/12/17 12:31:51;;;;;;;2.50;1.35;;;;;;;9.73;61.85;101510.84;7991569;28;20417;-64
2020/12/17 12:35:41;;;;;;;3.92;1.15;;;;;;;9.70;61.77;101505.75;7993357;28;20087;-65
2020/12/17 12:39:32;;;;;;;7.25;1.38;;;;;;;9.63;61.69;101496.47;7993635;28;20101;-65
2020/12/17 12:43:22;;;;;;;7.07;1.10;;;;;;;9.57;61.56;101507.31;7982367;28;20043;-66
2020/12/17 12:47:13;;;;;;;1.23;1.05;;;;;;;9.49;61.16;101497.22;7981205;28;20061;-65
2020/12/17 12:51:04;;;;;;;2.03;1.25;;;;;;;9.44;61.20;101512.34;7982764;28;20037;-64
2020/12/17 12:54:55;;;;;;;2.17;1.02;;;;;;;9.40;61.21;101512.56;7980363;28;20036;-65
2020/12/17 12:58:45;;;;;;;3.42;1.10;;;;;;;9.37;61.40;101516.19;7999396;28;20039;-66
2020/12/17 13:02:36;;;;;;;1.73;0.90;;;;;;;9.33;61.16;101518.06;7983092;28;20037;-65
2020/12/17 13:06:27;;;;;;;2.15;1.13;;;;;;;9.31;61.00;101509.47;7998847;28;20045;-66
2020/12/17 13:10:18;;;;;;;2.33;0.98;;;;;;;9.28;61.05;101512.25;8001544;28;20037;-66
2020/12/17 13:14:08;;;;;;;1.13;0.90;;;;;;;9.23;61.07;101523.88;7843978;28;71311;-65
2020/12/17 13:17:59;;;;;;;1.83;1.15;;;;;;;9.20;60.75;101518.78;8013255;28;20094;-65
2020/12/17 13:21:51;;;;;;;2.25;1.10;;;;;;;9.16;61.10;101522.50;7999302;28;20516;-64
2020/12/17 13:25:42;;;;;;;4.05;1.05;;;;;;;9.13;60.95;101525.25;7994680;28;20118;-65
2020/12/17 13:29:32;;;;;;;3.47;1.00;;;;;;;9.09;60.63;101518.47;7998980;28;20117;-65
2020/12/17 13:33:23;;;;;;;5.57;2.15;;;;;;;9.03;60.49;101527.50;7997597;28;20118;-65
2020/12/17 13:37:15;;;;;;;3.10;0.77;;;;;;;9.00;60.61;101532.00;8001195;28;20037;-65
2020/12/17 13:41:06;;;;;;;2.00;0.90;;;;;;;8.99;60.35;101535.56;8000078;28;20033;-65
2020/12/17 13:44:57;;;;;;;1.27;1.00;;;;;;;8.93;60.16;101531.47;8001456;28;20695;-65
2020/12/17 13:48:48;;;;;;;1.65;1.15;;;;;;;8.93;60.38;101543.72;7996496;28;20677;-65
2020/12/17 13:52:40;;;;;;;2.33;1.17;;;;;;;8.86;60.41;101538.78;7995707;28;20025;-64
2020/12/17 13:56:30;;;;;;;2.08;1.02;;;;;;;8.85;60.23;101547.56;7997286;28;20032;-64
2020/12/17 14:00:21;;;;;;;4.57;1.73;;;;;;;8.83;60.58;101549.41;7997125;28;20104;-63
2020/12/17 14:04:12;;;;;;;0.73;0.70;;;;;;;8.81;60.11;101546.03;7979743;28;20096;-65
2020/12/17 14:08:04;;;;;;;3.25;1.00;;;;;;;8.82;60.04;101557.34;7998361;28;20400;-64
2020/12/17 14:11:54;;;;;;;1.60;1.00;;;;;;;8.81;60.10;101550.41;7995786;28;20040;-65
2020/12/17 14:15:45;;;;;;;3.28;1.10;;;;;;;8.80;60.12;101553.94;7994380;28;20229;-65
2020/12/17 14:19:36;;;;;;;2.83;1.30;;;;;;;8.79;60.37;101557.47;7996963;28;20024;-65
2020/12/17 14:23:26;;;;;;;1.95;1.10;;;;;;;8.75;60.22;101559.41;7998483;28;20101;-64
2020/12/17 14:27:17;;;;;;;2.13;0.90;;;;;;;8.74;60.19;101564.72;7993776;28;20049;-65
2020/12/17 14:31:07;;;;;;;1.10;0.93;;;;;;;8.71;60.14;101563.09;7995408;28;20052;-65
2020/12/17 14:34:58;;;;;;;1.48;0.85;;;;;;;8.71;60.08;101567.47;7995605;28;20062;-65
2020/12/17 14:38:49;;;;;;;3.38;1.15;;;;;;;8.69;60.17;101577.19;7979709;28;20044;-65
2020/12/17 14:42:39;;;;;;;2.17;0.93;;;;;;;8.67;59.83;101577.25;7998138;28;20477;-64
2020/12/17 14:46:30;;;;;;;2.92;1.08;;;;;;;8.61;59.99;101579.31;7998436;28;20032;-65
2020/12/17 14:50:21;;;;;;;2.38;1.10;;;;;;;8.55;59.82;101577.81;7995904;28;20045;-66
2020/12/17 14:54:12;;;;;;;2.40;1.30;;;;;;;8.57;60.12;101596.94;7992498;28;20051;-63
2020/12/17 14:58:03;;;;;;;2.53;1.40;;;;;;;8.53;59.66;101597.16;7993570;28;20029;-65
2020/12/17 15:01:54;;;;;;;2.08;1.35;;;;;;;8.53;59.78;101605.88;7995745;28;20055;-64
2020/12/17 15:05:44;;;;;;;1.77;1.10;;;;;;;8.50;59.51;101605.16;7961823;28;20574;-65
2020/12/17 15:09:35;;;;;;;5.47;1.33;;;;;;;8.44;59.76;101608.03;7995013;28;20567;-65
2020/12/17 15:13:32;;;;;;;4.55;1.20;;;;;;;8.43;59.79;101622.91;7996618;28;20040;-64
2020/12/17 15:17:23;;;;;;;2.17;0.98;;;;;;;8.39;59.79;101626.56;7996038;28;20071;-65
2020/12/17 15:21:15;;;;;;;4.95;1.00;;;;;;;8.35;59.66;101633.72;7995541;28;20032;-65
2020/12/17 15:25:07;;;;;;;3.90;1.23;;;;;;;8.30;59.18;101643.53;7989050;28;20071;-65
2020/12/17 15:28:58;;;;;;;1.38;1.05;;;;;;;8.27;59.55;101641.06;7995278;28;20045;-65
2020/12/17 15:32:48;;;;;;;5.60;1.02;;;;;;;8.23;59.35;101651.75;7992508;28;20056;-65
2020/12/17 15:36:39;;;;;;;4.32;1.08;;;;;;;8.17;59.07;101652.84;7993896;28;20036;-65
2020/12/17 15:40:30;;;;;;;6.78;1.65;;;;;;;8.14;59.08;101660.00;7994961;28;20047;-65
2020/12/17 15:44:20;;;;;;;3.25;1.25;;;;;;;8.08;59.35;101663.72;7992347;28;20052;-65
2020/12/17 15:48:11;;;;;;;2.72;1.60;;;;;;;8.05;59.07;101666.44;7992287;28;20044;-65
2020/12/17 15:52:02;;;;;;;3.65;1.63;;;;;;;8.00;59.31;101678.03;7976277;28;20720;-65
2020/12/17 15:55:52;;;;;;;2.72;1.35;;;;;;;7.97;59.20;101684.22;7989941;28;20041;-65
2020/12/17 15:59:43;;;;;;;4.35;1.38;;;;;;;7.93;59.24;101700.97;7990829;28;20033;-66
2020/12/17 16:03:34;;;;;;;3.95;1.50;;;;;;;7.89;58.95;101705.47;7990676;28;20400;-66
2020/12/17 16:07:30;;;;;;;2.70;1.20;;;;;;;7.88;59.28;101703.78;7991202;28;20039;-66
2020/12/17 16:11:20;;;;;;;7.22;2.25;;;;;;;7.87;59.38;101693.41;7994539;28;20123;-66
2020/12/17 16:15:11;;;;;;;5.90;1.60;;;;;;;7.87;59.39;101696.88;7992634;28;20037;-65
2020/12/17 16:19:02;;;;;;;5.20;1.27;;;;;;;7.85;59.33;101697.81;8007095;28;20860;-66
2020/12/17 16:22:52;;;;;;;3.65;1.08;;;;;;;7.82;59.32;101703.19;7992143;28;20500;-65
2020/12/17 16:26:45;;;;;;;1.20;0.98;;;;;;;7.80;59.20;101705.00;7988309;28;20037;-65
2020/12/17 16:30:35;;;;;;;3.97;1.15;;;;;;;7.76;58.80;101703.44;7993463;28;20041;-66
2020/12/17 16:34:26;;;;;;;2.55;1.50;;;;;;;7.70;58.70;101699.31;7993359;28;20067;-66
2020/12/17 16:38:17;;;;;;;3.72;1.20;;;;;;;7.63;58.64;101694.41;7991041;28;20845;-65
2020/12/17 16:42:08;;;;;;;1.73;0.95;;;;;;;7.58;59.11;101699.81;7980186;28;20040;-65
2020/12/17 16:45:58;;;;;;;2.67;1.55;;;;;;;7.53;58.67;101707.00;7994927;28;21873;-65
2020/12/17 16:49:49;;;;;;;2.90;1.10;;;;;;;7.45;58.91;101706.44;7991658;28;20060;-65
2020/12/17 16:53:40;;;;;;;2.25;1.10;;;;;;;7.42;59.09;101703.97;7992232;28;20033;-65
2020/12/17 16:57:30;;;;;;;1.92;1.08;;;;;;;7.38;59.23;101703.22;7988321;28;20823;-65
2020/12/17 17:01:21;;;;;;;2.65;1.30;;;;;;;7.37;59.22;101708.53;7974629;28;20051;-65
2020/12/17 17:05:12;;;;;;;2.83;1.75;;;;;;;7.38;59.37;101710.22;7991107;28;20041;-65
2020/12/17 17:09:02;;;;;;;2.17;1.20;;;;;;;7.38;59.38;101710.22;7991231;28;20066;-65
2020/12/17 17:12:53;;;;;;;7.55;1.20;;;;;;;7.37;59.20;101706.75;7995858;28;20040;-65
2020/12/17 17:16:47;;;;;;;7.20;1.50;;;;;;;7.42;59.10;101711.81;7992429;28;20778;-66
2020/12/17 17:20:37;;;;;;;3.15;1.13;;;;;;;7.44;59.65;101712.59;7974091;28;20064;-65
2020/12/17 17:24:28;;;;;;;1.55;1.08;;;;;;;7.45;59.25;101714.28;7972063;28;20868;-65
2020/12/17 17:28:19;;;;;;;3.78;1.75;;;;;;;7.50;59.65;101720.19;7997147;28;20028;-66
2020/12/17 17:32:09;;;;;;;6.80;1.95;;;;;;;7.52;59.54;101728.81;7997565;28;20041;-64
2020/12/17 17:36:02;;;;;;;6.20;1.73;;;;;;;7.54;59.44;101721.78;8000299;28;20133;-65
2020/12/17 17:39:53;;;;;;;3.42;1.70;;;;;;;7.60;59.34;101731.13;7996702;28;20036;-66
2020/12/17 17:43:44;;;;;;;1.83;1.27;;;;;;;7.64;59.62;101732.69;7979097;28;20032;-62
2020/12/17 17:47:34;;;;;;;7.22;1.35;;;;;;;7.65;59.97;101731.78;7967971;28;20047;-68
2020/12/17 17:51:25;;;;;;;4.07;1.50;;;;;;;7.69;59.86;101731.63;8003517;28;20094;-66
2020/12/17 17:55:16;;;;;;;2.47;1.50;;;;;;;7.71;60.19;101736.78;7982356;28;20409;-66
2020/12/17 17:59:06;;;;;;;5.90;1.10;;;;;;;7.72;59.73;101739.31;7984195;28;20041;-69
2020/12/17 18:03:00;;;;;;;7.00;1.33;;;;;;;7.70;59.83;101742.94;7966243;28;20056;-67
2020/12/17 18:06:51;;;;;;;4.00;1.02;;;;;;;7.64;59.80;101741.41;7997850;28;20028;-69
2020/12/17 18:10:41;;;;;;;4.90;1.27;;;;;;;7.60;59.79;101746.81;7981273;28;20044;-68